Time;durP1;ratioP1;P1;durP2;ratioP2;P2;SDS_P1;SDS_P2;PMS_P1;PMS_P2;Temp;Humidity;BMP_temperature;BMP_pressure;BME280_temperature;BME280_humidity;BME280_pressure;Samples;Min_cycle;Max_cycle;Signal;HPM_P1;HPM_P2
2023/06/12 00:00:39;;;;;;;;;;;25.60;56.20;;;;;;5044128;28;42856;-80
2023/06/12 00:03:06;;;;;;;;;;;25.60;56.20;;;;;;5043532;28;42818;-80
2023/06/12 00:05:32;;;;;;;;;;;25.60;56.20;;;;;;5043665;28;43739;-80
2023/06/12 00:07:58;;;;;;;;;;;25.60;55.70;;;;;;5043952;28;42960;-79
2023/06/12 00:10:24;;;;;;;;;;;25.60;56.20;;;;;;5043998;28;42900;-80
2023/06/12 00:12:49;;;;;;;;;;;25.60;56.20;;;;;;5044025;28;42882;-79
2023/06/12 00:15:15;;;;;;;;;;;25.60;55.70;;;;;;5042831;28;43758;-79
2023/06/12 00:17:41;;;;;;;;;;;25.60;55.70;;;;;;5044554;28;42938;-80
2023/06/12 00:20:07;;;;;;;;;;;25.60;56.20;;;;;;5043951;28;42959;-79
2023/06/12 00:22:36;;;;;;;;;;;25.60;55.80;;;;;;5043684;28;42924;-80
2023/06/12 00:25:01;;;;;;;;;;;25.60;55.70;;;;;;5043771;28;43595;-80
2023/06/12 00:27:27;;;;;;;;;;;25.60;56.20;;;;;;5045342;28;43010;-80
2023/06/12 00:29:52;;;;;;;;;;;25.60;55.70;;;;;;5046669;28;42873;-80
2023/06/12 00:32:18;;;;;;;;;;;25.60;56.30;;;;;;5043947;28;43447;-80
2023/06/12 00:34:43;;;;;;;;;;;25.60;56.20;;;;;;5028712;28;44690;-80
2023/06/12 00:37:09;;;;;;;;;;;25.60;56.20;;;;;;5046240;28;42843;-80
2023/06/12 00:39:34;;;;;;;;;;;25.60;55.70;;;;;;5046291;28;42943;-80
2023/06/12 00:42:00;;;;;;;;;;;25.20;55.40;;;;;;5047051;28;42841;-80
2023/06/12 00:44:25;;;;;;;;;;;25.60;55.70;;;;;;5027325;28;44571;-79
2023/06/12 00:46:51;;;;;;;;;;;25.60;56.20;;;;;;5046926;28;43007;-80
2023/06/12 00:49:16;;;;;;;;;;;25.60;56.20;;;;;;5045847;28;43831;-79
2023/06/12 00:51:42;;;;;;;;;;;25.60;55.70;;;;;;5046595;28;42797;-79
2023/06/12 00:54:08;;;;;;;;;;;25.60;56.20;;;;;;5045841;28;43373;-80
2023/06/12 00:56:33;;;;;;;;;;;25.60;56.20;;;;;;5046492;28;43024;-79
2023/06/12 00:58:59;;;;;;;;;;;25.60;56.20;;;;;;5027904;28;44720;-79
2023/06/12 01:01:26;;;;;;;;;;;25.60;56.10;;;;;;5046091;28;43112;-79
2023/06/12 01:03:56;;;;;;;;;;;25.60;56.10;;;;;;5045897;28;43669;-80
2023/06/12 01:06:25;;;;;;;;;;;25.60;55.70;;;;;;5028046;28;42879;-79
2023/06/12 01:09:00;;;;;;;;;;;25.60;56.30;;;;;;5027912;28;43399;-79
2023/06/12 01:11:26;;;;;;;;;;;25.60;55.60;;;;;;5045592;28;42842;-79
2023/06/12 01:13:52;;;;;;;;;;;25.60;56.20;;;;;;5045287;28;43570;-79
2023/06/12 01:16:18;;;;;;;;;;;25.60;56.10;;;;;;5046475;28;42844;-79
2023/06/12 01:18:43;;;;;;;;;;;25.60;56.10;;;;;;5045847;28;43829;-79
2023/06/12 01:21:13;;;;;;;;;;;25.60;56.10;;;;;;5045375;28;42974;-80
2023/06/12 01:23:38;;;;;;;;;;;25.50;56.10;;;;;;5045364;28;43566;-79
2023/06/12 01:26:10;;;;;;;;;;;25.60;56.20;;;;;;5045241;28;42908;-80
2023/06/12 01:28:43;;;;;;;;;;;25.50;56.00;;;;;;5045725;28;42838;-79
2023/06/12 01:31:09;;;;;;;;;;;25.50;56.00;;;;;;5045361;28;42940;-79
2023/06/12 01:33:37;;;;;;;;;;;25.60;56.10;;;;;;5045431;28;44467;-80
2023/06/12 01:36:05;;;;;;;;;;;25.60;56.10;;;;;;5045248;28;43134;-80
2023/06/12 01:38:32;;;;;;;;;;;25.50;56.00;;;;;;5045770;28;42858;-80
2023/06/12 01:40:59;;;;;;;;;;;25.50;56.00;;;;;;5045678;28;43011;-80
2023/06/12 01:43:25;;;;;;;;;;;25.60;56.10;;;;;;5044169;28;43152;-80
2023/06/12 01:45:50;;;;;;;;;;;25.50;56.10;;;;;;5045886;28;43052;-79
2023/06/12 01:48:16;;;;;;;;;;;25.50;55.50;;;;;;5045606;28;42952;-80
2023/06/12 01:50:42;;;;;;;;;;;25.50;55.50;;;;;;5046141;28;42929;-80
2023/06/12 01:53:10;;;;;;;;;;;25.50;55.50;;;;;;5045140;28;43325;-79
2023/06/12 01:55:36;;;;;;;;;;;25.50;56.10;;;;;;5045763;28;43018;-79
2023/06/12 01:58:01;;;;;;;;;;;25.50;56.50;;;;;;5043617;28;43725;-80
2023/06/12 02:00:27;;;;;;;;;;;25.50;55.50;;;;;;5044912;28;42992;-79
2023/06/12 02:02:56;;;;;;;;;;;25.50;56.00;;;;;;5044935;28;43364;-78
2023/06/12 02:05:22;;;;;;;;;;;25.50;55.90;;;;;;5045588;28;42918;-80
2023/06/12 02:07:47;;;;;;;;;;;25.50;55.50;;;;;;5044408;28;42949;-80
2023/06/12 02:10:13;;;;;;;;;;;25.50;55.50;;;;;;5044511;28;42928;-79
2023/06/12 02:12:39;;;;;;;;;;;25.60;56.10;;;;;;5045264;28;42952;-80
2023/06/12 02:15:05;;;;;;;;;;;25.50;56.00;;;;;;5044965;28;42968;-80
2023/06/12 02:17:32;;;;;;;;;;;25.50;55.90;;;;;;5044876;28;43441;-80
2023/06/12 02:19:57;;;;;;;;;;;25.50;56.00;;;;;;5045142;28;43194;-80
2023/06/12 02:22:23;;;;;;;;;;;25.50;55.50;;;;;;5042534;28;43063;-80
2023/06/12 02:24:50;;;;;;;;;;;25.50;56.00;;;;;;5026170;28;43198;-80
2023/06/12 02:27:15;;;;;;;;;;;25.50;55.40;;;;;;5044380;28;43335;-79
2023/06/12 02:29:41;;;;;;;;;;;25.50;55.40;;;;;;5045005;28;42913;-80
2023/06/12 02:32:06;;;;;;;;;;;25.50;55.40;;;;;;5045242;28;42963;-80
2023/06/12 02:34:32;;;;;;;;;;;25.50;55.90;;;;;;5043822;28;43058;-80
2023/06/12 02:36:58;;;;;;;;;;;25.50;55.30;;;;;;5044331;28;42964;-79
2023/06/12 02:39:23;;;;;;;;;;;25.60;55.90;;;;;;5042960;28;43028;-81
2023/06/12 02:41:49;;;;;;;;;;;25.60;55.40;;;;;;5043263;28;43569;-80
2023/06/12 02:44:15;;;;;;;;;;;25.50;55.80;;;;;;5044378;28;42987;-79
2023/06/12 02:46:56;;;;;;;;;;;25.50;55.80;;;;;;5040925;28;43106;-80
2023/06/12 02:49:24;;;;;;;;;;;25.50;55.30;;;;;;5041677;28;42928;-80
2023/06/12 02:51:50;;;;;;;;;;;25.50;54.80;;;;;;5042945;28;43541;-81
2023/06/12 02:54:16;;;;;;;;;;;25.50;54.80;;;;;;5043557;28;42951;-81
2023/06/12 02:56:44;;;;;;;;;;;25.50;55.30;;;;;;5033551;28;43801;-82
2023/06/12 02:59:10;;;;;;;;;;;25.40;54.60;;;;;;5043571;28;42971;-80
2023/06/12 03:01:35;;;;;;;;;;;25.40;55.10;;;;;;5041398;28;43066;-80
2023/06/12 03:04:01;;;;;;;;;;;25.30;54.50;;;;;;5033666;28;43192;-79
2023/06/12 03:06:28;;;;;;;;;;;25.30;54.60;;;;;;5042680;28;42992;-79
2023/06/12 03:08:54;;;;;;;;;;;25.40;54.50;;;;;;5044301;28;43035;-79
2023/06/12 03:11:20;;;;;;;;;;;25.40;54.50;;;;;;5043555;28;42983;-79
2023/06/12 03:13:45;;;;;;;;;;;25.40;54.50;;;;;;5043432;28;42970;-80
2023/06/12 03:16:11;;;;;;;;;;;25.30;55.00;;;;;;5043208;28;43129;-80
2023/06/12 03:18:37;;;;;;;;;;;25.30;54.30;;;;;;5039971;28;43092;-79
2023/06/12 03:21:02;;;;;;;;;;;25.20;54.20;;;;;;5024512;28;44406;-79
2023/06/12 03:23:28;;;;;;;;;;;25.40;54.20;;;;;;5042022;28;42974;-80
2023/06/12 03:25:53;;;;;;;;;;;25.30;54.20;;;;;;5042049;28;43063;-80
2023/06/12 03:28:19;;;;;;;;;;;25.30;54.10;;;;;;5043274;28;43015;-80
2023/06/12 03:30:45;;;;;;;;;;;25.30;54.10;;;;;;5042890;28;44324;-79
2023/06/12 03:33:12;;;;;;;;;;;25.10;53.90;;;;;;5043793;28;42945;-79
2023/06/12 03:35:37;;;;;;;;;;;25.30;54.10;;;;;;5043221;28;43710;-79
2023/06/12 03:38:03;;;;;;;;;;;25.30;54.10;;;;;;5043415;28;42896;-79
2023/06/12 03:40:28;;;;;;;;;;;25.30;54.20;;;;;;5042698;28;42947;-79
2023/06/12 03:42:54;;;;;;;;;;;25.30;54.10;;;;;;5040549;28;43692;-78
2023/06/12 03:45:19;;;;;;;;;;;25.30;54.00;;;;;;5040236;28;42948;-79
2023/06/12 03:47:45;;;;;;;;;;;25.30;54.00;;;;;;5050835;28;43107;-79
2023/06/12 03:50:11;;;;;;;;;;;25.30;54.60;;;;;;5058110;28;43018;-78
2023/06/12 03:52:36;;;;;;;;;;;25.30;54.00;;;;;;5053432;28;43195;-79
2023/06/12 03:55:02;;;;;;;;;;;25.30;53.90;;;;;;5059456;28;43314;-79
2023/06/12 03:57:27;;;;;;;;;;;25.30;54.50;;;;;;5039953;28;43074;-79
2023/06/12 03:59:53;;;;;;;;;;;21.00;52.30;;;;;;5042299;28;43535;-80
2023/06/12 04:02:18;;;;;;;;;;;25.30;53.70;;;;;;5039450;28;43044;-79
2023/06/12 04:04:44;;;;;;;;;;;25.30;54.30;;;;;;5046825;28;42918;-79
2023/06/12 04:07:13;;;;;;;;;;;25.30;53.80;;;;;;5045363;28;43785;-79
2023/06/12 04:09:38;;;;;;;;;;;25.30;54.30;;;;;;5046243;28;43290;-79
2023/06/12 04:12:04;;;;;;;;;;;25.30;54.20;;;;;;5043107;28;42959;-79
2023/06/12 04:14:30;;;;;;;;;;;25.30;54.20;;;;;;5046795;28;42960;-79
2023/06/12 04:16:55;;;;;;;;;;;25.30;54.20;;;;;;5046523;28;43079;-79
2023/06/12 04:19:21;;;;;;;;;;;25.20;53.60;;;;;;5045683;28;43475;-79
2023/06/12 04:21:46;;;;;;;;;;;25.30;54.30;;;;;;5045096;28;42936;-80
2023/06/12 04:24:15;;;;;;;;;;;25.30;54.30;;;;;;5045896;28;43544;-78
2023/06/12 04:26:46;;;;;;;;;;;25.30;54.20;;;;;;5023708;28;43060;-80
2023/06/12 04:29:12;;;;;;;;;;;25.30;54.20;;;;;;5042724;28;42963;-80
2023/06/12 04:31:38;;;;;;;;;;;25.30;53.80;;;;;;5038505;28;43044;-79
2023/06/12 04:34:03;;;;;;;;;;;25.30;53.80;;;;;;5038923;28;43536;-79
2023/06/12 04:36:33;;;;;;;;;;;25.30;54.20;;;;;;5036961;28;42944;-79
2023/06/12 04:38:59;;;;;;;;;;;25.30;53.70;;;;;;5042423;28;43631;-80
2023/06/12 04:41:27;;;;;;;;;;;25.30;54.40;;;;;;5036289;28;42944;-80
2023/06/12 04:43:58;;;;;;;;;;;25.30;54.30;;;;;;5034801;28;43362;-79
2023/06/12 04:46:24;;;;;;;;;;;25.30;53.60;;;;;;5036020;28;43162;-80
2023/06/12 04:48:50;;;;;;;;;;;25.30;53.60;;;;;;5039864;28;43031;-79
2023/06/12 04:51:16;;;;;;;;;;;25.20;53.60;;;;;;5041369;28;42987;-80
2023/06/12 04:53:43;;;;;;;;;;;25.30;54.30;;;;;;5034826;28;43037;-78
2023/06/12 04:56:10;;;;;;;;;;;25.30;54.40;;;;;;5035344;28;42880;-79
2023/06/12 04:58:41;;;;;;;;;;;25.30;53.90;;;;;;5022345;28;43187;-80
2023/06/12 05:01:07;;;;;;;;;;;25.30;54.00;;;;;;5044863;28;42893;-79
2023/06/12 05:03:33;;;;;;;;;;;25.30;53.90;;;;;;5045618;28;43724;-79
2023/06/12 05:05:59;;;;;;;;;;;25.30;54.50;;;;;;5044625;28;43006;-80
2023/06/12 05:08:25;;;;;;;;;;;25.30;54.40;;;;;;5045419;28;43358;-80
2023/06/12 05:10:50;;;;;;;;;;;25.30;53.90;;;;;;5044062;28;43135;-79
2023/06/12 05:13:16;;;;;;;;;;;25.30;54.00;;;;;;5044529;28;43833;-80
2023/06/12 05:15:42;;;;;;;;;;;25.30;54.00;;;;;;5041713;28;43090;-80
2023/06/12 05:18:08;;;;;;;;;;;25.40;54.60;;;;;;5045313;28;42968;-79
2023/06/12 05:20:33;;;;;;;;;;;25.30;54.10;;;;;;5044939;28;42911;-79
2023/06/12 05:22:58;;;;;;;;;;;25.30;54.00;;;;;;5044881;28;42951;-80
2023/06/12 05:25:24;;;;;;;;;;;25.30;54.00;;;;;;5051535;28;43324;-79
2023/06/12 05:27:50;;;;;;;;;;;25.30;54.00;;;;;;5029183;28;43272;-79
2023/06/12 05:30:16;;;;;;;;;;;25.30;53.90;;;;;;5024756;28;43125;-83
2023/06/12 05:32:41;;;;;;;;;;;25.30;53.90;;;;;;5025222;28;42806;-81
2023/06/12 05:35:07;;;;;;;;;;;25.30;53.90;;;;;;5024776;28;43004;-79
2023/06/12 05:37:33;;;;;;;;;;;25.20;53.80;;;;;;5041622;28;43492;-80
2023/06/12 05:39:58;;;;;;;;;;;25.30;53.70;;;;;;5027083;28;43000;-81
2023/06/12 05:42:24;;;;;;;;;;;25.30;53.60;;;;;;5042874;28;43041;-81
2023/06/12 05:44:50;;;;;;;;;;;25.30;53.40;;;;;;5045374;28;42897;-81
2023/06/12 05:47:15;;;;;;;;;;;25.30;53.30;;;;;;5044903;28;42928;-85
2023/06/12 05:49:41;;;;;;;;;;;25.30;53.30;;;;;;5040699;28;43059;-83
2023/06/12 05:52:07;;;;;;;;;;;25.30;53.40;;;;;;5037731;28;43324;-83
2023/06/12 05:54:32;;;;;;;;;;;25.30;54.00;;;;;;5037308;28;43004;-83
2023/06/12 05:56:58;;;;;;;;;;;25.30;53.60;;;;;;5040800;28;42991;-83
2023/06/12 05:59:23;;;;;;;;;;;25.30;53.60;;;;;;5023521;28;42967;-82
2023/06/12 06:01:49;;;;;;;;;;;25.30;53.60;;;;;;5037604;28;43609;-83
2023/06/12 06:04:16;;;;;;;;;;;25.30;53.70;;;;;;5034333;28;42971;-83
2023/06/12 06:06:41;;;;;;;;;;;25.30;53.80;;;;;;5018553;28;44648;-84
2023/06/12 06:09:07;;;;;;;;;;;25.40;54.30;;;;;;5037011;28;42981;-80
2023/06/12 06:11:33;;;;;;;;;;;25.30;53.70;;;;;;5037120;28;43074;-80
2023/06/12 06:13:58;;;;;;;;;;;25.30;53.70;;;;;;5044524;28;43202;-79
2023/06/12 06:16:24;;;;;;;;;;;25.30;53.80;;;;;;5041409;28;43105;-80
2023/06/12 06:18:50;;;;;;;;;;;25.30;53.80;;;;;;5039656;28;42858;-84
2023/06/12 06:21:15;;;;;;;;;;;25.40;53.90;;;;;;5028626;28;43035;-79
2023/06/12 06:23:41;;;;;;;;;;;25.40;53.90;;;;;;5040873;28;43052;-80
2023/06/12 06:26:09;;;;;;;;;;;25.40;53.90;;;;;;5045944;28;43052;-79
2023/06/12 06:28:34;;;;;;;;;;;25.40;54.00;;;;;;5063964;28;43191;-80
2023/06/12 06:31:00;;;;;;;;;;;25.40;54.00;;;;;;5047441;28;43549;-79
2023/06/12 06:33:26;;;;;;;;;;;25.40;54.00;;;;;;5048978;28;43026;-79
2023/06/12 06:35:52;;;;;;;;;;;25.40;54.10;;;;;;5033166;28;43600;-79
2023/06/12 06:38:21;;;;;;;;;;;25.40;54.20;;;;;;5033393;28;43173;-80
2023/06/12 06:40:46;;;;;;;;;;;25.40;54.20;;;;;;5032587;28;43568;-81
2023/06/12 06:43:12;;;;;;;;;;;;;;;;;;5033036;28;43041;-82
2023/06/12 06:45:38;;;;;;;;;;;25.40;54.30;;;;;;5024693;28;44643;-82
2023/06/12 06:48:04;;;;;;;;;;;25.40;54.30;;;;;;5043815;28;43068;-84
2023/06/12 06:50:29;;;;;;;;;;;25.40;54.30;;;;;;5043661;28;43062;-82
2023/06/12 06:52:55;;;;;;;;;;;25.40;54.40;;;;;;5043382;28;43168;-81
2023/06/12 06:55:21;;;;;;;;;;;25.40;54.40;;;;;;5043854;28;43402;-83
2023/06/12 06:57:50;;;;;;;;;;;25.40;54.50;;;;;;5040937;28;43324;-84
2023/06/12 07:00:16;;;;;;;;;;;25.40;54.50;;;;;;5022276;28;45254;-83
2023/06/12 07:02:43;;;;;;;;;;;25.40;54.50;;;;;;5033551;28;43001;-83
2023/06/12 07:05:08;;;;;;;;;;;25.40;54.50;;;;;;5042446;28;43579;-85
2023/06/12 07:07:35;;;;;;;;;;;25.40;54.60;;;;;;5042874;28;43015;-86
2023/06/12 07:10:00;;;;;;;;;;;25.40;54.60;;;;;;5043724;28;42983;-84
2023/06/12 07:12:26;;;;;;;;;;;25.40;54.60;;;;;;5044085;28;42854;-83
2023/06/12 07:14:51;;;;;;;;;;;25.40;54.60;;;;;;5044234;28;43533;-84
2023/06/12 07:17:17;;;;;;;;;;;25.40;54.60;;;;;;5044604;28;43190;-82
2023/06/12 07:19:42;;;;;;;;;;;25.40;54.60;;;;;;5042423;28;43093;-82
2023/06/12 07:22:08;;;;;;;;;;;25.40;54.70;;;;;;5043583;28;42994;-82
2023/06/12 07:24:33;;;;;;;;;;;25.40;54.80;;;;;;5043723;28;43447;-83
2023/06/12 07:26:59;;;;;;;;;;;25.40;54.80;;;;;;5044116;28;43006;-84
2023/06/12 07:29:25;;;;;;;;;;;25.40;54.80;;;;;;5043746;28;43621;-83
2023/06/12 07:31:50;;;;;;;;;;;25.40;54.80;;;;;;5044305;28;42918;-82
2023/06/12 07:34:16;;;;;;;;;;;25.40;54.80;;;;;;5042375;28;43487;-82
2023/06/12 07:36:42;;;;;;;;;;;25.50;54.80;;;;;;5046347;28;43017;-82
2023/06/12 07:39:08;;;;;;;;;;;25.40;54.80;;;;;;5047627;28;43462;-84
2023/06/12 07:41:38;;;;;;;;;;;25.40;54.70;;;;;;5048031;28;42915;-83
2023/06/12 07:44:04;;;;;;;;;;;25.40;54.70;;;;;;5030071;28;44608;-82
2023/06/12 07:46:30;;;;;;;;;;;25.40;54.70;;;;;;5048080;28;42972;-82
2023/06/12 07:48:55;;;;;;;;;;;25.40;54.70;;;;;;5029394;28;44450;-82
2023/06/12 07:51:21;;;;;;;;;;;25.40;54.70;;;;;;5048278;28;42955;-82
2023/06/12 07:53:46;;;;;;;;;;;25.40;54.80;;;;;;5047345;28;42952;-83
2023/06/12 07:56:16;;;;;;;;;;;25.40;54.70;;;;;;5047832;28;42897;-84
2023/06/12 07:58:41;;;;;;;;;;;25.40;54.70;;;;;;5047617;28;43430;-82
2023/06/12 08:01:07;;;;;;;;;;;25.50;54.80;;;;;;5047794;28;42850;-83
2023/06/12 08:03:38;;;;;;;;;;;25.40;54.70;;;;;;5047928;28;43497;-82
2023/06/12 08:06:13;;;;;;;;;;;25.50;55.40;;;;;;5030110;28;42853;-83
2023/06/12 08:08:42;;;;;;;;;;;25.40;54.60;;;;;;5047642;28;43649;-83
2023/06/12 08:11:09;;;;;;;;;;;25.50;54.70;;;;;;5029624;28;42995;-83
2023/06/12 08:13:34;;;;;;;;;;;25.50;55.20;;;;;;5047600;28;43365;-82
2023/06/12 08:16:00;;;;;;;;;;;25.50;54.60;;;;;;5047519;28;42999;-83
2023/06/12 08:18:26;;;;;;;;;;;25.50;55.10;;;;;;5047457;28;42718;-85
2023/06/12 08:20:52;;;;;;;;;;;25.50;54.60;;;;;;5047924;28;43053;-82
2023/06/12 08:23:17;;;;;;;;;;;25.50;54.60;;;;;;5047057;28;42967;-83
2023/06/12 08:25:43;;;;;;;;;;;25.50;54.60;;;;;;5046730;28;42946;-82
2023/06/12 08:28:09;;;;;;;;;;;25.50;54.60;;;;;;5047437;28;43454;-85
2023/06/12 08:30:34;;;;;;;;;;;25.50;54.60;;;;;;5047724;28;43144;-88
2023/06/12 08:33:00;;;;;;;;;;;25.50;54.50;;;;;;5047469;28;43461;-83
2023/06/12 08:35:25;;;;;;;;;;;25.50;54.50;;;;;;5047021;28;43003;-84
2023/06/12 08:37:51;;;;;;;;;;;25.50;54.50;;;;;;5046885;28;42934;-83
2023/06/12 08:40:16;;;;;;;;;;;25.50;54.40;;;;;;5046456;28;42904;-83
2023/06/12 08:42:48;;;;;;;;;;;25.50;54.40;;;;;;5046749;28;43645;-82
2023/06/12 08:45:15;;;;;;;;;;;25.50;54.40;;;;;;5047357;28;43054;-84
2023/06/12 08:47:44;;;;;;;;;;;25.50;54.40;;;;;;5027898;28;44696;-84
2023/06/12 08:50:10;;;;;;;;;;;25.60;54.50;;;;;;5047318;28;42908;-82
2023/06/12 08:52:36;;;;;;;;;;;25.50;54.40;;;;;;5047320;28;42953;-82
2023/06/12 08:55:03;;;;;;;;;;;25.50;54.40;;;;;;5046698;28;43110;-82
2023/06/12 08:57:29;;;;;;;;;;;25.50;54.40;;;;;;5046328;28;43391;-83
2023/06/12 08:59:54;;;;;;;;;;;25.50;54.40;;;;;;5046378;28;43104;-81
2023/06/12 09:02:22;;;;;;;;;;;25.50;54.40;;;;;;5046562;28;42939;-82
2023/06/12 09:05:01;;;;;;;;;;;25.60;54.90;;;;;;5046596;28;42995;-83
2023/06/12 09:07:28;;;;;;;;;;;25.60;54.30;;;;;;5046448;28;43445;-82
2023/06/12 09:09:53;;;;;;;;;;;25.60;54.30;;;;;;5047178;28;42980;-83
2023/06/12 09:12:19;;;;;;;;;;;25.60;54.10;;;;;;5046242;28;42916;-88
2023/06/12 09:14:45;;;;;;;;;;;25.60;54.10;;;;;;5028357;28;42992;-82
2023/06/12 09:17:11;;;;;;;;;;;25.60;54.10;;;;;;5045699;28;43024;-83
2023/06/12 09:19:41;;;;;;;;;;;25.60;54.10;;;;;;5046316;28;42890;-84
2023/06/12 09:22:07;;;;;;;;;;;25.60;54.60;;;;;;5046143;28;42974;-83
2023/06/12 09:24:32;;;;;;;;;;;25.60;54.20;;;;;;5046419;28;42934;-85
2023/06/12 09:26:58;;;;;;;;;;;25.60;54.10;;;;;;5046394;28;42966;-82
2023/06/12 09:29:31;;;;;;;;;;;25.60;54.10;;;;;;5028093;28;42878;-82
2023/06/12 09:32:03;;;;;;;;;;;25.60;54.10;;;;;;5046302;28;42884;-83
2023/06/12 09:34:32;;;;;;;;;;;25.60;54.10;;;;;;5046384;28;43015;-82
2023/06/12 09:36:58;;;;;;;;;;;25.60;54.10;;;;;;5028010;28;44393;-83
2023/06/12 09:39:26;;;;;;;;;;;25.60;54.10;;;;;;5045822;28;42988;-86
2023/06/12 09:41:51;;;;;;;;;;;25.60;54.10;;;;;;5046337;28;43346;-83
2023/06/12 09:44:35;;;;;;;;;;;25.60;54.10;;;;;;5046451;28;42808;-83
2023/06/12 09:47:01;;;;;;;;;;;25.70;54.20;;;;;;5046009;28;42943;-82
2023/06/12 09:49:26;;;;;;;;;;;25.70;54.20;;;;;;5046007;28;43050;-82
2023/06/12 09:51:53;;;;;;;;;;;25.70;54.20;;;;;;5046178;28;43385;-82
2023/06/12 09:54:19;;;;;;;;;;;25.60;54.10;;;;;;5046151;28;42951;-83
2023/06/12 09:56:46;;;;;;;;;;;25.60;54.10;;;;;;5039598;28;43412;-80
2023/06/12 09:59:16;;;;;;;;;;;;;;;;;;5024526;28;43031;-79
2023/06/12 10:01:44;;;;;;;;;;;25.70;54.20;;;;;;5029536;28;44579;-80
2023/06/12 10:04:12;;;;;;;;;;;25.70;54.20;;;;;;5025237;28;43296;-80
2023/06/12 10:06:38;;;;;;;;;;;25.70;54.20;;;;;;5043012;28;43758;-80
2023/06/12 10:09:06;;;;;;;;;;;25.70;54.20;;;;;;5033921;28;43027;-79
2023/06/12 10:11:32;;;;;;;;;;;25.60;54.10;;;;;;5021687;28;45286;-78
2023/06/12 10:13:58;;;;;;;;;;;25.60;54.10;;;;;;5034182;28;43253;-78
2023/06/12 10:16:25;;;;;;;;;;;25.60;54.20;;;;;;5034321;28;43057;-80
2023/06/12 10:18:51;;;;;;;;;;;25.60;54.20;;;;;;5033992;28;42972;-81
2023/06/12 10:21:18;;;;;;;;;;;25.60;54.20;;;;;;5040593;28;43614;-80
2023/06/12 10:23:44;;;;;;;;;;;25.60;54.30;;;;;;5035377;28;42888;-79
2023/06/12 10:26:09;;;;;;;;;;;25.60;54.30;;;;;;5038984;28;43840;-80
2023/06/12 10:28:35;;;;;;;;;;;25.60;54.30;;;;;;5040174;28;42960;-80
2023/06/12 10:31:13;;;;;;;;;;;25.60;54.30;;;;;;5034576;28;43263;-80
2023/06/12 10:33:58;;;;;;;;;;;25.60;54.70;;;;;;5035414;28;42926;-79
2023/06/12 10:36:23;;;;;;;;;;;25.60;54.70;;;;;;5033382;28;43424;-80
2023/06/12 10:38:49;;;;;;;;;;;25.50;54.50;;;;;;5036311;28;43011;-80
2023/06/12 10:41:33;;;;;;;;;;;25.50;54.50;;;;;;5035978;28;43011;-82
2023/06/12 10:43:59;;;;;;;;;;;25.60;54.80;;;;;;5032796;28;43233;-80
2023/06/12 10:46:41;;;;;;;;;;;25.60;54.80;;;;;;5037338;28;43981;-81
2023/06/12 10:49:06;;;;;;;;;;;25.60;54.70;;;;;;5035085;28;42918;-83
2023/06/12 10:51:33;;;;;;;;;;;25.60;54.50;;;;;;5038800;28;43375;-83
2023/06/12 10:54:03;;;;;;;;;;;25.60;54.40;;;;;;5021685;28;43186;-81
2023/06/12 10:56:28;;;;;;;;;;;25.60;54.40;;;;;;5038536;28;43109;-83
2023/06/12 10:58:56;;;;;;;;;;;25.60;54.60;;;;;;5016524;28;43055;-82
2023/06/12 11:01:23;;;;;;;;;;;25.60;54.70;;;;;;5035671;28;43422;-82
2023/06/12 11:03:49;;;;;;;;;;;25.60;54.70;;;;;;5037048;28;43002;-82
2023/06/12 11:06:18;;;;;;;;;;;25.60;54.80;;;;;;5034073;28;43236;-82
2023/06/12 11:08:44;;;;;;;;;;;25.70;54.90;;;;;;5033552;28;43090;-82
2023/06/12 11:11:10;;;;;;;;;;;25.60;55.20;;;;;;5036119;28;44214;-81
2023/06/12 11:13:38;;;;;;;;;;;25.60;55.20;;;;;;5033927;28;43039;-82
2023/06/12 11:16:04;;;;;;;;;;;25.60;54.70;;;;;;5033984;28;43046;-82
2023/06/12 11:18:30;;;;;;;;;;;25.60;54.60;;;;;;5035160;28;42913;-82
2023/06/12 11:20:58;;;;;;;;;;;25.60;54.50;;;;;;5032473;28;63285;-80
2023/06/12 11:23:26;;;;;;;;;;;25.60;54.50;;;;;;5015861;28;43096;-82
2023/06/12 11:25:55;;;;;;;;;;;25.60;54.40;;;;;;5037123;28;43476;-82
2023/06/12 11:28:23;;;;;;;;;;;25.70;54.80;;;;;;5035064;28;42900;-80
2023/06/12 11:30:50;;;;;;;;;;;;;;;;;;5042299;28;44310;-82
2023/06/12 11:33:16;;;;;;;;;;;25.60;54.20;;;;;;5025996;28;43003;-80
2023/06/12 11:35:42;;;;;;;;;;;25.60;54.10;;;;;;5043208;28;43034;-82
2023/06/12 11:38:12;;;;;;;;;;;25.70;53.90;;;;;;5023487;28;43052;-81
2023/06/12 11:40:38;;;;;;;;;;;25.60;54.20;;;;;;5041569;28;43683;-82
2023/06/12 11:43:04;;;;;;;;;;;25.70;54.20;;;;;;5037523;28;42984;-81
2023/06/12 11:45:30;;;;;;;;;;;25.60;53.50;;;;;;5034193;28;43693;-81
2023/06/12 11:47:57;;;;;;;;;;;25.60;54.10;;;;;;5032901;28;43325;-80
2023/06/12 11:50:22;;;;;;;;;;;25.60;53.70;;;;;;5032662;28;43222;-80
2023/06/12 11:52:49;;;;;;;;;;;25.60;53.90;;;;;;5044032;28;42865;-82
2023/06/12 11:55:15;;;;;;;;;;;20.70;51.30;;;;;;5043779;28;43644;-82
2023/06/12 11:57:45;;;;;;;;;;;25.70;54.10;;;;;;5019099;28;42996;-83
2023/06/12 12:00:12;;;;;;;;;;;25.70;54.70;;;;;;5041578;28;43384;-82
2023/06/12 12:02:40;;;;;;;;;;;25.70;54.70;;;;;;5044025;28;42718;-82
2023/06/12 12:05:11;;;;;;;;;;;25.70;55.40;;;;;;5042998;28;43741;-86
2023/06/12 12:07:39;;;;;;;;;;;25.70;55.00;;;;;;5025600;28;42945;-85
2023/06/12 12:10:10;;;;;;;;;;;25.70;55.20;;;;;;5025935;28;44983;-84
2023/06/12 12:12:42;;;;;;;;;;;25.80;55.40;;;;;;5024093;28;43098;-82
2023/06/12 12:15:09;;;;;;;;;;;25.80;55.80;;;;;;5020828;28;44998;-81
2023/06/12 12:17:36;;;;;;;;;;;25.80;55.70;;;;;;5005562;28;42977;-81
2023/06/12 12:20:03;;;;;;;;;;;25.80;55.70;;;;;;5029411;28;43309;-81
2023/06/12 12:22:29;;;;;;;;;;;25.80;55.40;;;;;;5042751;28;43117;-81
2023/06/12 12:24:55;;;;;;;;;;;25.80;55.40;;;;;;5044699;28;43390;-81
2023/06/12 12:27:21;;;;;;;;;;;25.80;56.60;;;;;;5027944;28;43125;-81
2023/06/12 12:29:47;;;;;;;;;;;25.80;56.30;;;;;;5045985;28;43493;-82
2023/06/12 12:32:13;;;;;;;;;;;25.80;56.60;;;;;;5046057;28;42978;-81
2023/06/12 12:34:38;;;;;;;;;;;25.90;55.80;;;;;;5046089;28;43417;-81
2023/06/12 12:37:05;;;;;;;;;;;25.90;56.50;;;;;;5043778;28;42905;-81
2023/06/12 12:39:30;;;;;;;;;;;25.90;56.40;;;;;;5045542;28;43447;-81
2023/06/12 12:41:56;;;;;;;;;;;25.80;56.90;;;;;;5046209;28;42857;-81
2023/06/12 12:44:21;;;;;;;;;;;25.80;58.30;;;;;;5045824;28;43368;-82
2023/06/12 12:46:47;;;;;;;;;;;25.90;58.30;;;;;;5045775;28;43023;-80
2023/06/12 12:49:13;;;;;;;;;;;25.80;57.70;;;;;;5046854;28;43042;-81
2023/06/12 12:51:39;;;;;;;;;;;25.90;57.40;;;;;;5046410;28;42948;-81
2023/06/12 12:54:05;;;;;;;;;;;25.80;57.80;;;;;;5046230;28;42977;-80
2023/06/12 12:56:31;;;;;;;;;;;25.80;57.10;;;;;;5046362;28;43027;-80
2023/06/12 12:58:56;;;;;;;;;;;25.80;57.70;;;;;;5045792;28;43466;-80
2023/06/12 13:01:22;;;;;;;;;;;25.80;57.10;;;;;;5046453;28;42932;-80
2023/06/12 13:03:52;;;;;;;;;;;25.80;57.80;;;;;;5046115;28;43661;-81
2023/06/12 13:06:18;;;;;;;;;;;25.80;57.80;;;;;;5044201;28;43072;-78
2023/06/12 13:08:43;;;;;;;;;;;25.80;57.40;;;;;;5046390;28;42897;-79
2023/06/12 13:11:09;;;;;;;;;;;25.80;57.90;;;;;;5046453;28;43166;-79
2023/06/12 13:13:35;;;;;;;;;;;25.70;58.20;;;;;;5042926;28;43213;-79
2023/06/12 13:16:01;;;;;;;;;;;25.70;58.70;;;;;;5047275;28;42888;-78
2023/06/12 13:18:26;;;;;;;;;;;25.70;59.60;;;;;;5045546;28;43200;-79
2023/06/12 13:20:53;;;;;;;;;;;25.70;59.60;;;;;;5046168;28;43018;-78
2023/06/12 13:23:20;;;;;;;;;;;25.70;59.70;;;;;;5045718;28;43375;-79
2023/06/12 13:25:46;;;;;;;;;;;25.60;59.10;;;;;;5027059;28;43019;-78
2023/06/12 13:28:11;;;;;;;;;;;25.60;59.80;;;;;;5045200;28;43358;-79
2023/06/12 13:30:37;;;;;;;;;;;25.60;59.90;;;;;;5045416;28;43149;-79
2023/06/12 13:33:03;;;;;;;;;;;25.70;60.00;;;;;;5042153;28;42915;-79
2023/06/12 13:35:29;;;;;;;;;;;25.70;60.20;;;;;;5045051;28;43017;-79
2023/06/12 13:37:55;;;;;;;;;;;25.60;60.10;;;;;;5045539;28;43030;-79
2023/06/12 13:40:22;;;;;;;;;;;25.60;60.60;;;;;;5045894;28;43049;-81
2023/06/12 13:42:48;;;;;;;;;;;25.60;60.10;;;;;;5023701;28;44085;-80
2023/06/12 13:45:14;;;;;;;;;;;25.70;60.40;;;;;;5017909;28;42975;-79
2023/06/12 13:47:40;;;;;;;;;;;25.60;60.70;;;;;;5033565;28;42922;-79
2023/06/12 13:50:10;;;;;;;;;;;25.60;60.70;;;;;;5044703;28;43057;-81
2023/06/12 13:52:39;;;;;;;;;;;25.60;61.40;;;;;;5026167;28;45048;-78
2023/06/12 13:55:05;;;;;;;;;;;25.70;61.70;;;;;;5026413;28;43523;-79
2023/06/12 13:57:31;;;;;;;;;;;25.70;62.20;;;;;;5044573;28;43723;-79
2023/06/12 13:59:57;;;;;;;;;;;25.70;62.50;;;;;;5045627;28;43042;-79
2023/06/12 14:02:23;;;;;;;;;;;25.70;62.40;;;;;;5042072;28;43260;-78
2023/06/12 14:04:48;;;;;;;;;;;25.70;62.30;;;;;;5045388;28;43228;-83
2023/06/12 14:07:14;;;;;;;;;;;25.70;62.20;;;;;;5045017;28;43898;-78
2023/06/12 14:09:39;;;;;;;;;;;25.70;62.40;;;;;;5045168;28;43023;-79
2023/06/12 14:12:06;;;;;;;;;;;25.70;62.10;;;;;;5044857;28;43639;-79
2023/06/12 14:14:31;;;;;;;;;;;25.70;62.40;;;;;;5045251;28;42868;-78